Cheney, Washington
Current Conditions -  °F | °C
As of 5:25 AM on Thursday 30 Oct 2014 (Local Time) from KSKA Reporting Station
Light Rain Light Rain  
Wind Chill: 39°   Ceiling: 7000
Heat Index: 45°   Visibility: 6mi
Dew Point: 45°   Wind: 12mph
Humidity: 100%   Direction: 50°NE
Pressure: 30.13"   Gusts: NA
Location:  47.49°N, 117.57°W
Report Text: KSKA 301225Z AUTO 05010KT 6SM -RA BR SCT002 BKN070 07/07 A3013 RMK AO2 RAB1206E1216DZB1216E1218
Loading
Personal Weather Stations






























Interactive Weather Map
Tropical Storm Tracking
New forecast layout! Learn more

10-Day Weather Forecast

Advertisements
Track Severe Weather on mobile